createdAt,value
2017-03-05T00:00:09.106Z,0
2017-03-05T00:01:08.728Z,0
2017-03-05T00:02:08.728Z,0
2017-03-05T00:03:09.140Z,0
2017-03-05T00:04:09.162Z,0
2017-03-05T00:05:09.180Z,0
2017-03-05T00:06:09.235Z,0
2017-03-05T00:07:09.211Z,0
2017-03-05T00:08:09.244Z,0
2017-03-05T00:09:09.265Z,0
2017-03-05T00:10:09.265Z,0
2017-03-05T00:11:09.280Z,0
2017-03-05T00:12:09.355Z,0
2017-03-05T00:13:09.318Z,0
2017-03-05T00:14:09.325Z,0
2017-03-05T00:15:08.968Z,0
2017-03-05T00:16:08.981Z,0
2017-03-05T00:17:09.398Z,0
2017-03-05T00:18:09.007Z,0
2017-03-05T00:19:09.415Z,0
2017-03-05T00:20:09.444Z,0
2017-03-05T00:21:09.469Z,0
2017-03-05T00:22:09.484Z,0
2017-03-05T00:23:09.505Z,0
2017-03-05T00:24:09.511Z,0
2017-03-05T00:25:09.526Z,0
2017-03-05T00:26:09.562Z,0
2017-03-05T00:27:09.573Z,0
2017-03-05T00:28:09.581Z,0
2017-03-05T00:29:09.615Z,0
2017-03-05T00:30:09.300Z,0
2017-03-05T00:31:09.282Z,0
2017-03-05T00:32:09.642Z,0
2017-03-05T00:33:09.670Z,0
2017-03-05T00:34:09.702Z,0
2017-03-05T00:35:09.709Z,0
2017-03-05T00:36:09.362Z,0
2017-03-05T00:37:09.743Z,0
2017-03-05T00:38:09.572Z,0
2017-03-05T00:39:09.897Z,0
2017-03-05T00:40:09.868Z,0
2017-03-05T00:41:09.431Z,0
2017-03-05T00:42:09.550Z,0
2017-03-05T00:43:09.940Z,0
2017-03-05T00:44:09.985Z,0
2017-03-05T00:45:09.887Z,0
2017-03-05T00:46:09.920Z,0
2017-03-05T00:47:09.916Z,0
2017-03-05T00:48:09.553Z,0
2017-03-05T00:49:09.982Z,0
2017-03-05T00:50:11.167Z,0
2017-03-05T00:51:09.583Z,0
2017-03-05T00:52:10.022Z,0
2017-03-05T00:53:10.019Z,0
2017-03-05T00:54:09.673Z,0
2017-03-05T00:55:09.671Z,0
2017-03-05T00:56:10.070Z,0
2017-03-05T00:57:10.105Z,0
2017-03-05T00:58:09.313Z,0
2017-03-05T00:59:09.347Z,0
2017-03-05T01:00:09.748Z,0
2017-03-05T01:01:09.781Z,0
2017-03-05T01:02:09.385Z,0
2017-03-05T01:03:09.813Z,0
2017-03-05T01:04:10.220Z,0
2017-03-05T01:05:09.850Z,0
2017-03-05T01:06:09.861Z,0
2017-03-05T01:07:09.874Z,0
2017-03-05T01:08:09.887Z,0
2017-03-05T01:09:10.302Z,0
2017-03-05T01:10:10.335Z,0
2017-03-05T01:11:10.333Z,0
2017-03-05T01:12:10.463Z,0
2017-03-05T01:13:10.386Z,0
2017-03-05T01:14:10.397Z,0
2017-03-05T01:15:10.406Z,0
2017-03-05T01:16:10.419Z,0
2017-03-05T01:17:10.549Z,0
2017-03-05T01:18:10.095Z,0
2017-03-05T01:19:10.601Z,0
2017-03-05T01:20:10.596Z,0
2017-03-05T01:21:10.625Z,0
2017-03-05T01:22:10.615Z,0
2017-03-05T01:23:10.225Z,0
2017-03-05T01:24:10.626Z,0
2017-03-05T01:25:10.188Z,0
2017-03-05T01:26:10.676Z,0
2017-03-05T01:27:10.671Z,0
2017-03-05T01:28:10.757Z,0
2017-03-05T01:29:10.357Z,0
2017-03-05T01:30:10.358Z,0
2017-03-05T01:31:10.900Z,0
2017-03-05T01:32:10.900Z,0
2017-03-05T01:33:10.909Z,0
2017-03-05T01:34:10.537Z,0
2017-03-05T01:35:10.533Z,0
2017-03-05T01:36:10.539Z,0
2017-03-05T01:37:10.949Z,0
2017-03-05T01:38:10.548Z,0
2017-03-05T01:39:10.559Z,0
2017-03-05T01:40:10.557Z,0
2017-03-05T01:41:10.588Z,0
2017-03-05T01:42:10.994Z,0
2017-03-05T01:43:11.129Z,0
2017-03-05T01:44:10.634Z,0
2017-03-05T01:45:10.639Z,0
2017-03-05T01:46:10.650Z,0
2017-03-05T01:47:11.051Z,0
2017-03-05T01:48:11.052Z,0
2017-03-05T01:49:11.069Z,0
2017-03-05T01:50:10.323Z,0
2017-03-05T01:51:10.744Z,0
2017-03-05T01:52:10.727Z,0
2017-03-05T01:53:11.130Z,0
2017-03-05T01:54:11.173Z,0
2017-03-05T01:55:11.180Z,0
2017-03-05T01:56:11.183Z,0
2017-03-05T01:57:11.137Z,0
2017-03-05T01:58:11.248Z,0
2017-03-05T01:59:11.175Z,0
2017-03-05T02:00:11.198Z,0
2017-03-05T02:01:11.215Z,0
2017-03-05T02:02:10.829Z,0
2017-03-05T02:03:11.237Z,0
2017-03-05T02:04:10.871Z,0
2017-03-05T02:05:11.277Z,0
2017-03-05T02:06:11.338Z,0
2017-03-05T02:07:11.317Z,0
2017-03-05T02:08:11.325Z,0
2017-03-05T02:09:11.363Z,0
2017-03-05T02:10:11.367Z,0
2017-03-05T02:11:10.987Z,0
2017-03-05T02:12:11.405Z,0
2017-03-05T02:13:11.414Z,0
2017-03-05T02:14:11.037Z,0
2017-03-05T02:15:11.560Z,0
2017-03-05T02:16:11.683Z,0
2017-03-05T02:17:11.499Z,0
2017-03-05T02:18:11.092Z,0
2017-03-05T02:19:11.609Z,0
2017-03-05T02:20:11.135Z,0
2017-03-05T02:21:11.554Z,0
2017-03-05T02:22:11.551Z,0
2017-03-05T02:23:11.598Z,0
2017-03-05T02:24:11.606Z,0
2017-03-05T02:25:11.608Z,0
2017-03-05T02:26:11.241Z,0
2017-03-05T02:27:11.674Z,0
2017-03-05T02:28:11.672Z,0
2017-03-05T02:29:11.683Z,0
2017-03-05T02:30:11.717Z,0
2017-03-05T02:31:11.716Z,0
2017-03-05T02:32:11.359Z,0
2017-03-05T02:33:11.756Z,0
2017-03-05T02:34:11.775Z,0
2017-03-05T02:35:11.885Z,0
2017-03-05T02:36:11.829Z,0
2017-03-05T02:37:11.959Z,0
2017-03-05T02:38:12.043Z,0
2017-03-05T02:39:11.853Z,0
2017-03-05T02:40:11.549Z,0
2017-03-05T02:41:11.883Z,0
2017-03-05T02:42:11.909Z,0
2017-03-05T02:43:11.936Z,0
2017-03-05T02:44:11.930Z,0
2017-03-05T02:45:11.956Z,0
2017-03-05T02:46:11.983Z,0
2017-03-05T02:47:12.011Z,0
2017-03-05T02:48:12.012Z,0
2017-03-05T02:49:12.016Z,0
2017-03-05T02:50:11.643Z,0
2017-03-05T02:51:12.050Z,0
2017-03-05T02:52:12.080Z,0
2017-03-05T02:53:12.092Z,0
2017-03-05T02:54:11.798Z,0
2017-03-05T02:55:12.124Z,0
2017-03-05T02:56:12.138Z,0
2017-03-05T02:57:12.150Z,0
2017-03-05T02:58:12.172Z,0
2017-03-05T02:59:12.187Z,0
2017-03-05T03:00:12.223Z,0
2017-03-05T03:01:11.822Z,0
2017-03-05T03:02:11.847Z,0
2017-03-05T03:03:12.410Z,0
2017-03-05T03:04:11.940Z,0
2017-03-05T03:05:12.320Z,0
2017-03-05T03:06:11.918Z,0
2017-03-05T03:07:12.017Z,0
2017-03-05T03:08:11.964Z,0
2017-03-05T03:09:12.371Z,0
2017-03-05T03:10:12.096Z,0
2017-03-05T03:11:12.485Z,0
2017-03-05T03:12:12.041Z,0
2017-03-05T03:13:12.034Z,0
2017-03-05T03:14:12.052Z,0
2017-03-05T03:15:12.484Z,0
2017-03-05T03:16:12.481Z,0
2017-03-05T03:17:12.497Z,0
2017-03-05T03:18:12.273Z,0
2017-03-05T03:19:12.580Z,0
2017-03-05T03:20:12.278Z,0
2017-03-05T03:21:12.573Z,0
2017-03-05T03:22:12.585Z,0
2017-03-05T03:23:12.689Z,0
2017-03-05T03:24:12.619Z,0
2017-03-05T03:25:12.694Z,0
2017-03-05T03:26:12.643Z,0
2017-03-05T03:27:12.712Z,0
2017-03-05T03:28:12.671Z,0
2017-03-05T03:29:12.848Z,0
2017-03-05T03:30:12.705Z,0
2017-03-05T03:31:12.798Z,0
2017-03-05T03:32:12.342Z,0
2017-03-05T03:33:12.781Z,0
2017-03-05T03:34:12.387Z,0
2017-03-05T03:35:12.411Z,0
2017-03-05T03:36:12.807Z,0
2017-03-05T03:37:12.852Z,0
2017-03-05T03:38:12.863Z,0
2017-03-05T03:39:12.886Z,0
2017-03-05T03:40:12.873Z,0
2017-03-05T03:41:12.914Z,0
2017-03-05T03:42:12.909Z,0
2017-03-05T03:43:13.131Z,0
2017-03-05T03:44:12.979Z,0
2017-03-05T03:45:12.986Z,0
2017-03-05T03:46:12.982Z,0
2017-03-05T03:47:13.009Z,0
2017-03-05T03:48:13.015Z,0
2017-03-05T03:49:12.668Z,0
2017-03-05T03:50:13.050Z,0
2017-03-05T03:51:13.059Z,0
2017-03-05T03:52:13.091Z,0
2017-03-05T03:53:13.130Z,0
2017-03-05T03:54:13.103Z,0
2017-03-05T03:55:13.146Z,0
2017-03-05T03:56:12.747Z,0
2017-03-05T03:57:13.180Z,0
2017-03-05T03:58:13.182Z,0
2017-03-05T03:59:12.803Z,0
2017-03-05T04:00:12.823Z,0
2017-03-05T04:01:12.866Z,0
2017-03-05T04:02:13.242Z,0
2017-03-05T04:03:12.475Z,0
2017-03-05T04:04:12.871Z,0
2017-03-05T04:05:13.312Z,0
2017-03-05T04:06:13.319Z,0
2017-03-05T04:07:13.339Z,0
2017-03-05T04:08:12.960Z,0
2017-03-05T04:09:13.388Z,0
2017-03-05T04:10:13.371Z,0
2017-03-05T04:11:13.426Z,0
2017-03-05T04:12:13.006Z,0
2017-03-05T04:13:13.430Z,0
2017-03-05T04:14:13.447Z,0
2017-03-05T04:15:13.478Z,0
2017-03-05T04:16:12.711Z,0
2017-03-05T04:17:13.640Z,0
2017-03-05T04:18:13.115Z,0
2017-03-05T04:19:13.645Z,0
2017-03-05T04:20:13.137Z,0
2017-03-05T04:21:13.684Z,0
2017-03-05T04:22:13.669Z,0
2017-03-05T04:23:13.692Z,0
2017-03-05T04:24:13.702Z,0
2017-03-05T04:25:13.749Z,0
2017-03-05T04:26:13.755Z,0
2017-03-05T04:27:13.262Z,0
2017-03-05T04:28:13.784Z,0
2017-03-05T04:29:13.796Z,0
2017-03-05T04:30:13.782Z,0
2017-03-05T04:31:13.812Z,0
2017-03-05T04:32:13.821Z,0
2017-03-05T04:33:13.820Z,0
2017-03-05T04:34:13.829Z,0
2017-03-05T04:35:13.896Z,0
2017-03-05T04:36:13.851Z,0
2017-03-05T04:37:13.916Z,0
2017-03-05T04:38:13.894Z,0
2017-03-05T04:39:13.972Z,0
2017-03-05T04:40:13.970Z,0
2017-03-05T04:41:13.979Z,0
2017-03-05T04:42:13.978Z,0
2017-03-05T04:43:14.163Z,0
2017-03-05T04:44:14.015Z,0
2017-03-05T04:45:13.644Z,0
2017-03-05T04:46:13.652Z,0
2017-03-05T04:47:14.210Z,0
2017-03-05T04:48:14.194Z,0
2017-03-05T04:49:14.138Z,0
2017-03-05T04:50:13.716Z,0
2017-03-05T04:51:13.737Z,0
2017-03-05T04:52:13.747Z,0
2017-03-05T04:53:14.302Z,0
2017-03-05T04:54:13.762Z,0
2017-03-05T04:55:14.290Z,0
2017-03-05T04:56:13.773Z,0
2017-03-05T04:57:14.299Z,0
2017-03-05T04:58:14.307Z,0
2017-03-05T04:59:14.305Z,0
2017-03-05T05:00:13.797Z,0
2017-03-05T05:01:13.938Z,0
2017-03-05T05:02:14.332Z,0
2017-03-05T05:03:14.435Z,0
2017-03-05T05:04:13.563Z,0
2017-03-05T05:05:14.314Z,0
2017-03-05T05:06:14.323Z,0
2017-03-05T05:07:13.946Z,0
2017-03-05T05:08:14.336Z,0
2017-03-05T05:09:14.356Z,0
2017-03-05T05:10:14.143Z,0
2017-03-05T05:11:14.364Z,0
2017-03-05T05:12:13.983Z,0
2017-03-05T05:13:14.545Z,0
2017-03-05T05:14:20.686Z,0
2017-03-05T05:15:14.428Z,0
2017-03-05T05:16:14.568Z,0
2017-03-05T05:17:14.562Z,0
2017-03-05T05:18:14.575Z,0
2017-03-05T05:19:14.597Z,0
2017-03-05T05:20:14.217Z,0
2017-03-05T05:21:14.637Z,0
2017-03-05T05:22:14.641Z,0
2017-03-05T05:23:14.570Z,0
2017-03-05T05:24:14.592Z,0
2017-03-05T05:25:14.596Z,0
2017-03-05T05:26:14.606Z,0
2017-03-05T05:27:14.638Z,0
2017-03-05T05:28:14.665Z,0
2017-03-05T05:29:14.703Z,4
2017-03-05T05:30:14.659Z,4
2017-03-05T05:31:14.721Z,4
2017-03-05T05:32:14.707Z,4
2017-03-05T05:33:14.720Z,0
2017-03-05T05:34:14.741Z,0
2017-03-05T05:35:14.768Z,4
2017-03-05T05:36:13.992Z,4
2017-03-05T05:37:14.391Z,4
2017-03-05T05:38:14.845Z,8
2017-03-05T05:39:14.827Z,4
2017-03-05T05:40:14.457Z,0
2017-03-05T05:41:14.854Z,4
2017-03-05T05:42:14.469Z,8
2017-03-05T05:43:14.987Z,8
2017-03-05T05:44:14.900Z,8
2017-03-05T05:45:14.907Z,4
2017-03-05T05:46:15.045Z,4
2017-03-05T05:47:14.951Z,8
2017-03-05T05:48:14.976Z,8
2017-03-05T05:49:15.076Z,8
2017-03-05T05:50:14.980Z,8
2017-03-05T05:51:14.634Z,8
2017-03-05T05:52:15.048Z,12
2017-03-05T05:53:15.434Z,8
2017-03-05T05:54:15.050Z,12
2017-03-05T05:55:15.093Z,12
2017-03-05T05:56:15.085Z,16
2017-03-05T05:57:15.224Z,20
2017-03-05T05:58:15.124Z,24
2017-03-05T05:59:15.182Z,20
2017-03-05T06:00:15.168Z,24
2017-03-05T06:01:15.287Z,32
2017-03-05T06:02:14.780Z,32
2017-03-05T06:03:14.949Z,40
2017-03-05T06:04:15.208Z,36
2017-03-05T06:05:15.365Z,40
2017-03-05T06:06:15.255Z,60
2017-03-05T06:07:15.292Z,96
2017-03-05T06:08:15.278Z,104
2017-03-05T06:09:15.378Z,108
2017-03-05T06:10:14.974Z,92
2017-03-05T06:11:15.347Z,100
2017-03-05T06:12:15.351Z,80
2017-03-05T06:13:15.488Z,60
2017-03-05T06:14:15.400Z,60
2017-03-05T06:15:15.602Z,56
2017-03-05T06:16:15.397Z,60
2017-03-05T06:17:15.522Z,60
2017-03-05T06:18:15.444Z,56
2017-03-05T06:19:15.572Z,56
2017-03-05T06:20:15.611Z,64
2017-03-05T06:21:15.631Z,68
2017-03-05T06:22:15.514Z,84
2017-03-05T06:23:15.715Z,84
2017-03-05T06:24:15.535Z,76
2017-03-05T06:25:15.581Z,80
2017-03-05T06:26:15.165Z,92
2017-03-05T06:27:15.612Z,100
2017-03-05T06:28:15.626Z,104
2017-03-05T06:29:15.618Z,108
2017-03-05T06:30:15.646Z,92
2017-03-05T06:31:15.784Z,124
2017-03-05T06:32:15.675Z,144
2017-03-05T06:33:15.716Z,128
2017-03-05T06:34:15.810Z,156
2017-03-05T06:35:15.735Z,124
2017-03-05T06:36:15.749Z,140
2017-03-05T06:37:15.795Z,148
2017-03-05T06:38:15.761Z,92
2017-03-05T06:39:15.803Z,96
2017-03-05T06:40:15.798Z,104
2017-03-05T06:41:15.823Z,96
2017-03-05T06:42:15.444Z,96
2017-03-05T06:43:15.863Z,84
2017-03-05T06:44:16.462Z,80
2017-03-05T06:45:16.063Z,80
2017-03-05T06:46:15.885Z,92
2017-03-05T06:47:16.029Z,112
2017-03-05T06:48:16.034Z,112
2017-03-05T06:49:16.058Z,112
2017-03-05T06:50:15.947Z,116
2017-03-05T06:51:15.781Z,112
2017-03-05T06:52:16.051Z,96
2017-03-05T06:53:16.101Z,92
2017-03-05T06:54:16.110Z,72
2017-03-05T06:55:16.148Z,76
2017-03-05T06:56:16.043Z,88
2017-03-05T06:57:16.073Z,112
2017-03-05T06:58:16.094Z,104
2017-03-05T06:59:16.109Z,116
2017-03-05T07:00:15.898Z,120
2017-03-05T07:01:16.159Z,136
2017-03-05T07:02:16.156Z,152
2017-03-05T07:03:16.194Z,168
2017-03-05T07:04:16.186Z,168
2017-03-05T07:05:15.803Z,168
2017-03-05T07:06:16.224Z,204
2017-03-05T07:07:15.837Z,248
2017-03-05T07:08:15.841Z,248
2017-03-05T07:09:15.898Z,204
2017-03-05T07:10:15.877Z,208
2017-03-05T07:11:15.900Z,184
2017-03-05T07:12:15.996Z,144
2017-03-05T07:13:16.333Z,152
2017-03-05T07:14:15.938Z,188
2017-03-05T07:15:16.443Z,200
2017-03-05T07:16:16.005Z,196
2017-03-05T07:17:16.405Z,236
2017-03-05T07:18:16.021Z,240
2017-03-05T07:19:16.443Z,256
2017-03-05T07:20:16.440Z,260
2017-03-05T07:21:16.160Z,224
2017-03-05T07:22:16.464Z,200
2017-03-05T07:23:16.132Z,220
2017-03-05T07:24:16.100Z,192
2017-03-05T07:25:16.549Z,172
2017-03-05T07:26:16.253Z,184
2017-03-05T07:27:16.151Z,200
2017-03-05T07:28:16.678Z,176
2017-03-05T07:29:16.613Z,160
2017-03-05T07:30:16.637Z,164
2017-03-05T07:31:16.229Z,168
2017-03-05T07:32:16.624Z,236
2017-03-05T07:33:16.677Z,304
2017-03-05T07:34:16.368Z,360
2017-03-05T07:35:16.701Z,400
2017-03-05T07:36:16.755Z,452
2017-03-05T07:37:16.742Z,440
2017-03-05T07:38:16.734Z,388
2017-03-05T07:39:16.750Z,352
2017-03-05T07:40:16.770Z,392
2017-03-05T07:41:16.893Z,424
2017-03-05T07:42:16.390Z,484
2017-03-05T07:43:16.458Z,500
2017-03-05T07:44:16.418Z,452
2017-03-05T07:45:16.972Z,452
2017-03-05T07:46:16.967Z,496
2017-03-05T07:47:16.983Z,576
2017-03-05T07:48:16.498Z,608
2017-03-05T07:49:16.922Z,608
2017-03-05T07:50:16.929Z,604
2017-03-05T07:51:16.966Z,628
2017-03-05T07:52:17.063Z,600
2017-03-05T07:53:16.994Z,628
2017-03-05T07:54:17.037Z,616
2017-03-05T07:55:16.637Z,592
2017-03-05T07:56:17.035Z,584
2017-03-05T07:57:17.056Z,528
2017-03-05T07:58:17.073Z,456
2017-03-05T07:59:17.107Z,416
2017-03-05T08:00:17.074Z,388
2017-03-05T08:01:17.126Z,424
2017-03-05T08:02:16.914Z,472
2017-03-05T08:03:16.939Z,532
2017-03-05T08:04:17.149Z,552
2017-03-05T08:05:17.188Z,548
2017-03-05T08:06:16.788Z,500
2017-03-05T08:07:17.290Z,508
2017-03-05T08:08:17.298Z,604
2017-03-05T08:09:17.268Z,680
2017-03-05T08:10:17.253Z,756
2017-03-05T08:11:17.293Z,804
2017-03-05T08:12:17.289Z,828
2017-03-05T08:13:17.301Z,824
2017-03-05T08:14:16.916Z,820
2017-03-05T08:15:16.961Z,816
2017-03-05T08:16:17.337Z,840
2017-03-05T08:17:17.360Z,836
2017-03-05T08:18:17.372Z,832
2017-03-05T08:19:17.422Z,864
2017-03-05T08:20:17.428Z,824
2017-03-05T08:21:17.450Z,760
2017-03-05T08:22:17.584Z,792
2017-03-05T08:23:17.477Z,824
2017-03-05T08:24:18.639Z,828
2017-03-05T08:25:17.590Z,796
2017-03-05T08:26:17.608Z,792
2017-03-05T08:27:17.633Z,796
2017-03-05T08:28:17.685Z,800
2017-03-05T08:29:20.697Z,768
2017-03-05T08:30:16.814Z,744
2017-03-05T08:31:17.710Z,748
2017-03-05T08:32:17.602Z,752
2017-03-05T08:33:17.633Z,744
2017-03-05T08:34:17.617Z,772
2017-03-05T08:35:17.652Z,772
2017-03-05T08:36:17.665Z,776
2017-03-05T08:37:17.700Z,764
2017-03-05T08:38:17.724Z,764
2017-03-05T08:39:17.932Z,760
2017-03-05T08:40:17.338Z,756
2017-03-05T08:41:17.785Z,748
2017-03-05T08:42:17.773Z,732
2017-03-05T08:43:17.796Z,712
2017-03-05T08:44:17.796Z,692
2017-03-05T08:45:17.811Z,676
2017-03-05T08:46:17.818Z,668
2017-03-05T08:47:17.445Z,668
2017-03-05T08:48:17.853Z,688
2017-03-05T08:49:17.886Z,756
2017-03-05T08:50:17.890Z,784
2017-03-05T08:51:17.529Z,760
2017-03-05T08:52:17.921Z,744
2017-03-05T08:53:17.554Z,744
2017-03-05T08:54:17.965Z,752
2017-03-05T08:55:18.009Z,788
2017-03-05T08:56:18.001Z,824
2017-03-05T08:57:18.031Z,848
2017-03-05T08:58:18.027Z,872
2017-03-05T08:59:17.661Z,884
2017-03-05T09:00:18.056Z,892
2017-03-05T09:01:18.095Z,900
2017-03-05T09:02:18.103Z,908
2017-03-05T09:03:18.115Z,924
2017-03-05T09:04:17.719Z,940
2017-03-05T09:05:18.155Z,960
2017-03-05T09:06:18.164Z,980
2017-03-05T09:07:18.164Z,996
2017-03-05T09:08:18.288Z,1012
2017-03-05T09:09:17.808Z,1016
2017-03-05T09:10:18.405Z,1012
2017-03-05T09:11:18.318Z,1004
2017-03-05T09:12:18.403Z,996
2017-03-05T09:13:17.886Z,988
2017-03-05T09:14:18.293Z,984
2017-03-05T09:15:17.533Z,984
2017-03-05T09:16:17.925Z,976
2017-03-05T09:17:18.362Z,972
2017-03-05T09:18:17.967Z,968
2017-03-05T09:19:18.424Z,976
2017-03-05T09:20:18.404Z,976
2017-03-05T09:21:18.440Z,964
2017-03-05T09:22:18.427Z,948
2017-03-05T09:23:18.505Z,920
2017-03-05T09:24:18.464Z,892
2017-03-05T09:25:18.104Z,864
2017-03-05T09:26:18.493Z,848
2017-03-05T09:27:18.516Z,836
2017-03-05T09:28:18.520Z,836
2017-03-05T09:29:18.549Z,832
2017-03-05T09:30:18.616Z,824
2017-03-05T09:31:18.587Z,812
2017-03-05T09:32:18.586Z,812
2017-03-05T09:33:18.643Z,816
2017-03-05T09:34:18.613Z,824
2017-03-05T09:35:18.669Z,824
2017-03-05T09:36:18.256Z,824
2017-03-05T09:37:18.705Z,840
2017-03-05T09:38:18.302Z,860
2017-03-05T09:39:18.709Z,868
2017-03-05T09:40:18.718Z,872
2017-03-05T09:41:18.873Z,876
2017-03-05T09:42:18.483Z,904
2017-03-05T09:43:18.488Z,940
2017-03-05T09:44:18.703Z,976
2017-03-05T09:45:18.514Z,1008
2017-03-05T09:46:18.912Z,1036
2017-03-05T09:47:19.059Z,1036
2017-03-05T09:48:18.672Z,1048
2017-03-05T09:49:19.073Z,1084
2017-03-05T09:50:19.073Z,1140
2017-03-05T09:51:18.994Z,1208
2017-03-05T09:52:18.994Z,1260
2017-03-05T09:53:19.049Z,1268
2017-03-05T09:54:19.076Z,1272
2017-03-05T09:55:18.681Z,1608
2017-03-05T09:56:18.699Z,1692
2017-03-05T09:57:18.689Z,1276
2017-03-05T09:58:18.709Z,1652
2017-03-05T09:59:18.740Z,1500
2017-03-05T10:00:18.657Z,1588
2017-03-05T10:01:19.112Z,1328
2017-03-05T10:02:19.131Z,1572
2017-03-05T10:03:19.126Z,1928
2017-03-05T10:04:19.128Z,1952
2017-03-05T10:05:19.147Z,1880
2017-03-05T10:06:19.158Z,1844
2017-03-05T10:07:18.789Z,1892
2017-03-05T10:08:18.800Z,1628
2017-03-05T10:09:19.214Z,1088
2017-03-05T10:10:19.228Z,1668
2017-03-05T10:11:19.259Z,1420
2017-03-05T10:12:18.860Z,1636
2017-03-05T10:13:18.945Z,1768
2017-03-05T10:14:18.497Z,1792
2017-03-05T10:15:18.932Z,1936
2017-03-05T10:16:18.942Z,1812
2017-03-05T10:17:19.338Z,1628
2017-03-05T10:18:18.962Z,1644
2017-03-05T10:19:19.378Z,1136
2017-03-05T10:20:18.993Z,1164
2017-03-05T10:21:19.030Z,1160
2017-03-05T10:22:18.635Z,1040
2017-03-05T10:23:19.453Z,920
2017-03-05T10:24:19.456Z,1104
2017-03-05T10:25:19.492Z,912
2017-03-05T10:26:19.497Z,1028
2017-03-05T10:27:19.515Z,1048
2017-03-05T10:28:19.142Z,1228
2017-03-05T10:29:19.189Z,1332
2017-03-05T10:30:19.591Z,1388
2017-03-05T10:31:19.587Z,1456
2017-03-05T10:32:19.632Z,1872
2017-03-05T10:33:18.849Z,1808
2017-03-05T10:34:19.658Z,1660
2017-03-05T10:35:19.665Z,1208
2017-03-05T10:36:19.684Z,1180
2017-03-05T10:37:19.701Z,988
2017-03-05T10:38:19.729Z,1076
2017-03-05T10:39:19.739Z,1332
2017-03-05T10:40:19.347Z,1628
2017-03-05T10:41:19.758Z,1800
2017-03-05T10:42:19.773Z,1672
2017-03-05T10:43:19.417Z,1840
2017-03-05T10:44:19.816Z,1836
2017-03-05T10:45:19.861Z,1432
2017-03-05T10:46:19.861Z,1000
2017-03-05T10:47:19.904Z,668
2017-03-05T10:48:19.894Z,708
2017-03-05T10:49:19.945Z,972
2017-03-05T10:50:19.921Z,1272
2017-03-05T10:51:19.956Z,1620
2017-03-05T10:52:19.968Z,2028
2017-03-05T10:53:19.994Z,2004
2017-03-05T10:54:19.615Z,1916
2017-03-05T10:55:20.022Z,1472
2017-03-05T10:56:19.636Z,1060
2017-03-05T10:57:20.055Z,852
2017-03-05T10:58:20.075Z,848
2017-03-05T10:59:20.138Z,792
2017-03-05T11:00:20.121Z,912
2017-03-05T11:01:20.145Z,1244
2017-03-05T11:02:20.147Z,1656
2017-03-05T11:03:20.179Z,1748
2017-03-05T11:04:20.185Z,1408
2017-03-05T11:05:20.194Z,1032
2017-03-05T11:06:19.411Z,1000
2017-03-05T11:07:20.245Z,1204
2017-03-05T11:08:20.246Z,1712
2017-03-05T11:09:20.277Z,1888
2017-03-05T11:10:20.274Z,1892
2017-03-05T11:11:20.331Z,1868
2017-03-05T11:12:19.526Z,1696
2017-03-05T11:13:20.376Z,1772
2017-03-05T11:14:19.967Z,1860
2017-03-05T11:15:20.386Z,1980
2017-03-05T11:16:20.382Z,2400
2017-03-05T11:17:20.450Z,2780
2017-03-05T11:18:20.431Z,2944
2017-03-05T11:19:20.465Z,2796
2017-03-05T11:20:20.068Z,2748
2017-03-05T11:21:20.504Z,2708
2017-03-05T11:22:20.507Z,2772
2017-03-05T11:23:19.715Z,2564
2017-03-05T11:24:20.564Z,2480
2017-03-05T11:25:20.558Z,2328
2017-03-05T11:26:20.588Z,1872
2017-03-05T11:27:20.205Z,1468
2017-03-05T11:28:20.624Z,1316
2017-03-05T11:29:20.694Z,1328
2017-03-05T11:30:20.658Z,1292
2017-03-05T11:31:19.879Z,1412
2017-03-05T11:32:20.674Z,1712
2017-03-05T11:33:20.707Z,1984
2017-03-05T11:34:20.731Z,2032
2017-03-05T11:35:20.733Z,2028
2017-03-05T11:36:20.365Z,2052
2017-03-05T11:37:20.792Z,2004
2017-03-05T11:38:20.799Z,1912
2017-03-05T11:39:20.824Z,1860
2017-03-05T11:40:20.826Z,1856
2017-03-05T11:41:20.973Z,1660
2017-03-05T11:42:20.974Z,1484
2017-03-05T11:43:21.005Z,1380
2017-03-05T11:44:21.013Z,1312
2017-03-05T11:45:20.542Z,1176
2017-03-05T11:46:21.032Z,1016
2017-03-05T11:47:21.030Z,876
2017-03-05T11:48:21.039Z,796
2017-03-05T11:49:21.048Z,820
2017-03-05T11:50:21.057Z,804
2017-03-05T11:51:21.055Z,764
2017-03-05T11:52:21.193Z,840
2017-03-05T11:53:21.202Z,992
2017-03-05T11:54:21.131Z,1040
2017-03-05T11:55:21.142Z,1040
2017-03-05T11:56:21.145Z,1036
2017-03-05T11:57:21.158Z,1144
2017-03-05T11:58:21.169Z,1432
2017-03-05T11:59:21.283Z,1752
2017-03-05T12:00:21.292Z,2064
2017-03-05T12:01:20.816Z,2228
2017-03-05T12:02:21.299Z,1976
2017-03-05T12:03:21.332Z,1752
2017-03-05T12:04:21.340Z,1640
2017-03-05T12:05:21.350Z,1464
2017-03-05T12:06:21.357Z,1304
2017-03-05T12:07:21.347Z,1096
2017-03-05T12:08:20.995Z,796
2017-03-05T12:09:21.402Z,688
2017-03-05T12:10:21.392Z,596
2017-03-05T12:11:21.437Z,812
2017-03-05T12:12:21.428Z,1204
2017-03-05T12:13:21.188Z,1488
2017-03-05T12:14:21.492Z,1520
2017-03-05T12:15:21.481Z,1392
2017-03-05T12:16:21.105Z,1148
2017-03-05T12:17:21.535Z,804
2017-03-05T12:18:21.530Z,884
2017-03-05T12:19:21.589Z,1140
2017-03-05T12:20:21.248Z,1092
2017-03-05T12:21:21.598Z,764
2017-03-05T12:22:21.605Z,680
2017-03-05T12:23:21.297Z,684
2017-03-05T12:24:21.651Z,768
2017-03-05T12:25:21.305Z,844
2017-03-05T12:26:21.680Z,736
2017-03-05T12:27:21.723Z,636
2017-03-05T12:28:21.715Z,572
2017-03-05T12:29:21.765Z,504
2017-03-05T12:30:21.760Z,496
2017-03-05T12:31:21.791Z,600
2017-03-05T12:32:21.800Z,824
2017-03-05T12:33:21.421Z,980
2017-03-05T12:34:21.835Z,1168
2017-03-05T12:35:21.862Z,1316
2017-03-05T12:36:21.917Z,1432
2017-03-05T12:37:22.105Z,1604
2017-03-05T12:38:21.924Z,1968
2017-03-05T12:39:21.935Z,2064
2017-03-05T12:40:21.960Z,2076
2017-03-05T12:41:21.966Z,2160
2017-03-05T12:42:22.051Z,2136
2017-03-05T12:43:21.996Z,2020
2017-03-05T12:44:22.042Z,1768
2017-03-05T12:45:22.060Z,1608
2017-03-05T12:46:22.057Z,1756
2017-03-05T12:47:22.102Z,1900
2017-03-05T12:48:22.094Z,1720
2017-03-05T12:49:22.141Z,1380
2017-03-05T12:50:21.730Z,1208
2017-03-05T12:51:22.151Z,1092
2017-03-05T12:52:22.415Z,976
2017-03-05T12:53:21.399Z,872
2017-03-05T12:54:22.242Z,792
2017-03-05T12:55:22.236Z,688
2017-03-05T12:56:22.244Z,576
2017-03-05T12:57:22.276Z,516
2017-03-05T12:58:22.299Z,492
2017-03-05T12:59:22.302Z,476
2017-03-05T13:00:22.325Z,488
2017-03-05T13:01:22.341Z,560
2017-03-05T13:02:21.996Z,660
2017-03-05T13:03:21.988Z,768
2017-03-05T13:04:21.600Z,820
2017-03-05T13:05:22.029Z,872
2017-03-05T13:06:22.430Z,916
2017-03-05T13:07:22.472Z,1044
2017-03-05T13:08:22.083Z,1192
2017-03-05T13:09:22.491Z,1280
2017-03-05T13:10:22.513Z,1260
2017-03-05T13:11:22.530Z,1252
2017-03-05T13:12:22.569Z,1292
2017-03-05T13:13:22.585Z,1388
2017-03-05T13:14:22.593Z,1492
2017-03-05T13:15:22.606Z,1576
2017-03-05T13:16:22.617Z,1700
2017-03-05T13:17:22.647Z,1740
2017-03-05T13:18:22.706Z,1680
2017-03-05T13:19:22.332Z,1568
2017-03-05T13:20:22.729Z,1496
2017-03-05T13:21:22.326Z,1316
2017-03-05T13:22:22.737Z,1156
2017-03-05T13:23:22.772Z,1160
2017-03-05T13:24:22.785Z,1304
2017-03-05T13:25:22.806Z,1332
2017-03-05T13:26:22.816Z,1464
2017-03-05T13:27:22.845Z,1624
2017-03-05T13:28:22.850Z,1500
2017-03-05T13:29:22.868Z,1372
2017-03-05T13:30:22.886Z,1352
2017-03-05T13:31:22.138Z,1360
2017-03-05T13:32:22.929Z,1428
2017-03-05T13:33:22.962Z,1592
2017-03-05T13:34:22.976Z,1880
2017-03-05T13:35:22.982Z,1972
2017-03-05T13:36:23.011Z,1796
2017-03-05T13:37:23.023Z,1728
2017-03-05T13:38:23.039Z,1468
2017-03-05T13:39:23.097Z,1408
2017-03-05T13:40:23.089Z,1532
2017-03-05T13:41:23.111Z,1368
2017-03-05T13:42:23.130Z,1268
2017-03-05T13:43:23.155Z,1260
2017-03-05T13:44:23.175Z,1276
2017-03-05T13:45:23.168Z,988
2017-03-05T13:46:23.200Z,996
2017-03-05T13:47:23.209Z,1084
2017-03-05T13:48:23.235Z,1396
2017-03-05T13:49:23.245Z,1680
2017-03-05T13:50:23.296Z,1916
2017-03-05T13:51:22.887Z,1728
2017-03-05T13:52:23.324Z,1612
2017-03-05T13:53:23.334Z,1856
2017-03-05T13:54:23.353Z,1872
2017-03-05T13:55:23.367Z,2000
2017-03-05T13:56:23.395Z,1752
2017-03-05T13:57:23.460Z,1236
2017-03-05T13:58:23.433Z,784
2017-03-05T13:59:23.449Z,616
2017-03-05T14:00:23.483Z,616
2017-03-05T14:01:23.488Z,648
2017-03-05T14:02:23.501Z,740
2017-03-05T14:03:23.530Z,904
2017-03-05T14:04:23.538Z,1032